createdAt,value
2023-03-10T00:08:26.741Z,8.35
2023-03-10T00:23:29.712Z,8.11
2023-03-10T00:38:31.978Z,7.88
2023-03-10T00:53:34.340Z,7.39
2023-03-10T01:08:36.755Z,7.48
2023-03-10T01:23:39.074Z,7.1
2023-03-10T01:38:41.372Z,6.66
2023-03-10T01:53:43.932Z,6.2
2023-03-10T02:08:46.273Z,5.87
2023-03-10T02:24:00.392Z,5.7
2023-03-10T02:39:03.526Z,5.36
2023-03-10T02:54:05.920Z,5.3
2023-03-10T03:09:08.144Z,5.08
2023-03-10T03:24:10.334Z,4.41
2023-03-10T03:39:12.575Z,4.1
2023-03-10T03:54:14.764Z,3.97
2023-03-10T04:09:17.283Z,4.34
2023-03-10T04:24:19.501Z,4.03
2023-03-10T04:39:21.953Z,4.53
2023-03-10T04:54:24.219Z,3.74
2023-03-10T05:09:26.463Z,4.01
2023-03-10T05:24:28.765Z,4.12
2023-03-10T05:39:31.032Z,3.84
2023-03-10T05:54:33.331Z,3.58
2023-03-10T06:09:35.576Z,3.16
2023-03-10T06:24:37.817Z,3.3
2023-03-10T06:39:40.181Z,3.18
2023-03-10T06:54:42.413Z,3.1
2023-03-10T07:09:44.634Z,3.3
2023-03-10T07:24:46.906Z,3.22
2023-03-10T07:39:49.322Z,2.19
2023-03-10T07:54:51.585Z,2.72
2023-03-10T08:09:53.884Z,2.9
2023-03-10T08:24:56.129Z,2.29
2023-03-10T08:39:58.485Z,2.19
2023-03-10T08:55:00.738Z,1.58
2023-03-10T09:10:02.977Z,2
2023-03-10T09:25:05.235Z,1.92
2023-03-10T09:40:07.709Z,2.2
2023-03-10T09:55:11.643Z,1.55
2023-03-10T10:10:15.231Z,1.8
2023-03-10T10:25:17.507Z,1.4
2023-03-10T10:40:19.733Z,1.34
2023-03-10T10:55:22.048Z,1.25
2023-03-10T11:10:24.423Z,1.01
2023-03-10T11:25:26.745Z,0.79
2023-03-10T11:40:28.971Z,0.45
2023-03-10T11:55:31.188Z,1.13
2023-03-10T12:10:33.469Z,0.69
2023-03-10T12:25:35.925Z,1.15
2023-03-10T12:40:38.120Z,0.63
2023-03-10T12:55:40.382Z,1.24
2023-03-10T13:10:42.590Z,1.65
2023-03-10T13:25:44.826Z,1.01
2023-03-10T13:40:47.055Z,1.57
2023-03-10T13:55:49.580Z,1.56
2023-03-10T14:10:51.876Z,0.51
2023-03-10T14:25:54.082Z,1.48
2023-03-10T14:40:56.389Z,1.28
2023-03-10T14:55:58.641Z,1.09
2023-03-10T15:11:00.903Z,1.33
2023-03-10T15:26:03.130Z,1.23
2023-03-10T15:41:05.395Z,0.5
2023-03-10T15:56:07.677Z,0.25
2023-03-10T16:11:09.911Z,0.1
2023-03-10T16:26:12.139Z,0.95
2023-03-10T16:41:14.368Z,1.6
2023-03-10T16:56:16.645Z,1.79
2023-03-10T17:11:19.004Z,2.01
2023-03-10T17:26:21.231Z,1.55
2023-03-10T17:41:23.421Z,2.07
2023-03-10T17:56:25.701Z,2.06
2023-03-10T18:11:27.988Z,2.21
2023-03-10T18:26:30.593Z,1.96
2023-03-10T18:41:32.995Z,2.28
2023-03-10T18:56:35.436Z,1.86
2023-03-10T19:11:37.766Z,2.08
2023-03-10T19:26:40.082Z,1.95
2023-03-10T19:41:42.363Z,2.21
2023-03-10T19:56:44.555Z,2.56
2023-03-10T20:11:46.793Z,2.34
2023-03-10T20:26:49.085Z,2.06
2023-03-10T20:41:51.336Z,2.77
2023-03-10T20:56:53.747Z,2.98
2023-03-10T21:11:56.047Z,3.62
2023-03-10T21:26:58.328Z,4.08
2023-03-10T21:42:00.600Z,4.72
2023-03-10T21:57:03.225Z,5.32
2023-03-10T22:12:05.493Z,5.35
2023-03-10T22:27:07.691Z,3.69
2023-03-10T22:42:09.912Z,3.73
2023-03-10T22:57:12.182Z,5.12
2023-03-10T23:12:14.572Z,4.95
2023-03-10T23:27:16.841Z,5.66
2023-03-10T23:42:19.242Z,5.88
2023-03-10T23:57:21.592Z,5.73
